createdAt,value
2023-02-14T00:02:59.815Z,12.25
2023-02-14T00:07:58.771Z,12.52
2023-02-14T00:12:57.968Z,12.68
2023-02-14T00:18:00.030Z,11.85
2023-02-14T00:23:00.958Z,13.35
2023-02-14T00:27:59.768Z,13.15
2023-02-14T00:33:00.421Z,12.73
2023-02-14T00:37:59.076Z,13.23
2023-02-14T00:42:57.790Z,10.80
2023-02-14T00:47:56.537Z,12.25
2023-02-14T00:52:55.249Z,12.27
2023-02-14T00:57:55.857Z,11.80
2023-02-14T01:02:54.837Z,11.68
2023-02-14T01:07:53.661Z,11.00
2023-02-14T01:12:52.432Z,12.00
2023-02-14T01:17:51.228Z,12.82
2023-02-14T01:22:49.942Z,11.52
2023-02-14T01:27:48.831Z,12.20
2023-02-14T01:32:47.730Z,11.65
2023-02-14T01:37:46.725Z,10.43
2023-02-14T01:42:45.533Z,11.40
2023-02-14T01:47:49.821Z,10.80
2023-02-14T01:52:57.806Z,10.50
2023-02-14T01:58:03.300Z,10.55
2023-02-14T02:03:05.336Z,11.75
2023-02-14T02:08:04.367Z,11.13
2023-02-14T02:13:06.148Z,11.63
2023-02-14T02:18:27.082Z,11.63
2023-02-14T02:23:56.791Z,12.13
2023-02-14T02:29:42.572Z,12.10
2023-02-14T02:35:18.499Z,11.35
2023-02-14T02:40:23.371Z,11.70
2023-02-14T02:46:13.929Z,11.60
2023-02-14T02:51:43.083Z,11.50
2023-02-14T02:56:51.398Z,11.27
2023-02-14T03:02:14.412Z,11.40
2023-02-14T03:07:32.120Z,11.77
2023-02-14T03:12:34.176Z,11.70
2023-02-14T03:17:49.653Z,11.25
2023-02-14T03:23:16.358Z,11.00
2023-02-14T03:28:20.695Z,10.40
2023-02-14T03:33:28.073Z,12.30
2023-02-14T03:38:45.289Z,10.88
2023-02-14T03:43:49.525Z,11.30
2023-02-14T03:48:51.202Z,11.60
2023-02-14T03:53:54.777Z,10.75
2023-02-14T03:58:57.608Z,10.18
2023-02-14T04:03:58.538Z,10.48
2023-02-14T04:08:57.448Z,9.88
2023-02-14T04:13:56.308Z,10.38
2023-02-14T04:19:13.787Z,10.73
2023-02-14T04:24:15.553Z,10.38
2023-02-14T04:29:14.231Z,11.50
2023-02-14T04:34:13.679Z,11.25
2023-02-14T04:39:12.507Z,9.70
2023-02-14T04:44:11.461Z,10.15
2023-02-14T04:49:10.461Z,10.15
2023-02-14T04:54:09.362Z,11.05
2023-02-14T04:59:08.954Z,10.75
2023-02-14T05:04:08.627Z,9.57
2023-02-14T05:09:07.432Z,9.65
2023-02-14T05:14:06.198Z,10.77
2023-02-14T05:19:04.980Z,10.93
2023-02-14T05:24:04.042Z,9.95
2023-02-14T05:29:03.100Z,3.60
2023-02-14T05:34:02.016Z,9.75
2023-02-14T05:39:00.763Z,9.02
2023-02-14T05:44:00.370Z,8.95
2023-02-14T05:48:59.121Z,9.15
2023-02-14T05:54:00.196Z,8.20
2023-02-14T05:58:59.173Z,9.30
2023-02-14T06:03:58.088Z,8.77
2023-02-14T06:08:56.866Z,8.07
2023-02-14T06:13:55.794Z,10.07
2023-02-14T06:18:54.709Z,9.55
2023-02-14T06:23:53.457Z,10.43
2023-02-14T06:28:57.125Z,10.82
2023-02-14T06:33:56.111Z,10.93
2023-02-14T06:38:55.022Z,10.90
2023-02-14T06:43:54.288Z,11.35
2023-02-14T06:48:53.288Z,11.63
2023-02-14T06:53:52.463Z,12.65
2023-02-14T06:58:51.335Z,11.85
2023-02-14T07:03:50.165Z,10.57
2023-02-14T07:08:49.248Z,10.77
2023-02-14T07:13:49.428Z,10.93
2023-02-14T07:18:48.677Z,10.15
2023-02-14T07:23:50.229Z,9.70
2023-02-14T07:28:49.259Z,10.63
2023-02-14T07:33:48.243Z,10.27
2023-02-14T07:38:47.152Z,9.45
2023-02-14T07:43:46.234Z,10.48
2023-02-14T07:48:45.154Z,10.52
2023-02-14T07:53:44.063Z,9.50
2023-02-14T07:58:42.826Z,9.30
2023-02-14T08:03:44.584Z,7.90
2023-02-14T08:08:43.482Z,7.80
2023-02-14T08:13:42.328Z,7.85
2023-02-14T08:18:42.492Z,6.28
2023-02-14T08:23:41.406Z,7.70
2023-02-14T08:28:40.129Z,7.97
2023-02-14T08:33:39.084Z,7.55
2023-02-14T08:38:37.907Z,7.65
2023-02-14T08:43:36.720Z,7.07
2023-02-14T08:48:38.842Z,7.38
2023-02-14T08:53:42.198Z,7.95
2023-02-14T08:58:41.184Z,7.28
2023-02-14T09:03:40.419Z,8.40
2023-02-14T09:08:40.176Z,7.03
2023-02-14T09:13:39.074Z,6.88
2023-02-14T09:18:38.512Z,7.65
2023-02-14T09:23:37.721Z,8.43
2023-02-14T09:28:37.791Z,7.32
2023-02-14T09:33:55.700Z,7.55
2023-02-14T09:38:54.754Z,7.78
2023-02-14T09:44:11.147Z,7.03
2023-02-14T09:49:15.898Z,7.38
2023-02-14T09:54:21.991Z,7.78
2023-02-14T09:59:39.425Z,8.77
2023-02-14T10:04:57.370Z,7.72
2023-02-14T10:10:28.969Z,9.38
2023-02-14T10:15:42.336Z,7.90
2023-02-14T10:20:54.650Z,8.27
2023-02-14T10:26:06.166Z,7.95
2023-02-14T10:31:23.191Z,8.30
2023-02-14T10:36:42.714Z,9.48
2023-02-14T10:41:58.472Z,9.65
2023-02-14T10:52:34.796Z,7.60
2023-02-14T10:57:38.494Z,8.25
2023-02-14T11:02:41.634Z,8.82
2023-02-14T11:07:40.404Z,9.55
2023-02-14T11:12:41.686Z,8.63
2023-02-14T11:17:42.280Z,8.75
2023-02-14T11:22:41.272Z,8.43
2023-02-14T11:27:49.791Z,7.45
2023-02-14T11:32:56.101Z,7.22
2023-02-14T11:37:57.356Z,7.13
2023-02-14T11:43:13.440Z,8.25
2023-02-14T11:48:36.692Z,7.07
2023-02-14T11:53:48.586Z,7.88
2023-02-14T11:58:58.331Z,8.02
2023-02-14T12:04:01.556Z,8.23
2023-02-14T12:09:22.681Z,8.75
2023-02-14T12:14:23.550Z,7.72
2023-02-14T12:19:38.359Z,8.68
2023-02-14T12:24:49.137Z,8.55
2023-02-14T12:30:07.938Z,8.38
2023-02-14T12:35:54.816Z,8.52
2023-02-14T12:46:22.509Z,8.32
2023-02-14T12:51:30.175Z,8.23
2023-02-14T12:57:13.424Z,8.57
2023-02-14T13:02:30.908Z,8.38
2023-02-14T13:07:45.440Z,8.00
2023-02-14T13:12:55.232Z,7.10
2023-02-14T13:18:00.318Z,6.97
2023-02-14T13:23:04.972Z,7.55
2023-02-14T13:28:12.951Z,6.53
2023-02-14T13:33:35.229Z,6.28
2023-02-14T13:38:40.590Z,6.43
2023-02-14T13:43:45.695Z,6.13
2023-02-14T13:49:14.094Z,5.72
2023-02-14T13:54:31.607Z,6.45
2023-02-14T13:59:35.343Z,7.90
2023-02-14T14:04:35.909Z,9.10
2023-02-14T14:09:41.074Z,8.95
2023-02-14T14:14:40.806Z,10.68
2023-02-14T14:19:40.766Z,10.48
2023-02-14T14:24:41.962Z,11.38
2023-02-14T14:29:45.591Z,12.35
2023-02-14T14:34:53.785Z,11.73
2023-02-14T14:39:57.578Z,12.35
2023-02-14T14:45:00.274Z,13.13
2023-02-14T14:50:14.164Z,12.57
2023-02-14T14:55:24.163Z,12.57
2023-02-14T15:00:27.274Z,13.15
2023-02-14T15:05:28.140Z,12.55
2023-02-14T15:10:30.354Z,12.93
2023-02-14T15:15:30.786Z,13.75
2023-02-14T15:20:29.810Z,13.20
2023-02-14T15:25:35.681Z,14.20
2023-02-14T15:30:38.268Z,14.00
2023-02-14T15:35:42.324Z,13.25
2023-02-14T15:40:43.591Z,13.70
2023-02-14T15:45:45.050Z,12.90
2023-02-14T15:50:46.420Z,12.68
2023-02-14T15:55:49.713Z,13.77
2023-02-14T16:00:50.359Z,14.82
2023-02-14T16:05:50.612Z,13.00
2023-02-14T16:11:01.778Z,13.98
2023-02-14T16:16:09.061Z,13.52
2023-02-14T16:21:29.300Z,14.57
2023-02-14T16:26:28.465Z,14.13
2023-02-14T16:31:27.503Z,13.68
2023-02-14T16:36:29.157Z,14.35
2023-02-14T16:41:29.889Z,13.57
2023-02-14T16:46:35.533Z,13.60
2023-02-14T16:51:37.188Z,13.40
2023-02-14T16:56:46.649Z,15.60
2023-02-14T17:01:45.786Z,15.57
2023-02-14T17:06:51.629Z,11.95
2023-02-14T17:11:55.289Z,14.25
2023-02-14T17:16:56.310Z,19.00
2023-02-14T17:21:58.105Z,16.17
2023-02-14T17:26:56.847Z,15.23
2023-02-14T17:31:55.702Z,16.73
2023-02-14T17:36:54.725Z,19.65
2023-02-14T17:41:53.661Z,16.13
2023-02-14T17:46:54.640Z,15.95
2023-02-14T17:51:53.420Z,16.02
2023-02-14T17:56:52.199Z,18.33
2023-02-14T18:01:51.068Z,16.58
2023-02-14T18:06:49.844Z,16.83
2023-02-14T18:11:49.997Z,16.20
2023-02-14T18:16:48.762Z,17.50
2023-02-14T18:21:47.865Z,17.40
2023-02-14T18:26:46.774Z,16.70
2023-02-14T18:31:45.683Z,17.52
2023-02-14T18:36:44.546Z,18.98
2023-02-14T18:41:43.656Z,18.58
2023-02-14T18:46:42.763Z,18.25
2023-02-14T18:51:41.630Z,16.77
2023-02-14T18:56:40.710Z,18.27
2023-02-14T19:01:43.449Z,16.80
2023-02-14T19:06:42.551Z,18.00
2023-02-14T19:11:41.855Z,17.88
2023-02-14T19:16:44.309Z,17.40
2023-02-14T19:21:43.113Z,19.15
2023-02-14T19:26:42.905Z,19.70
2023-02-14T19:31:44.574Z,18.92
2023-02-14T19:36:43.440Z,18.25
2023-02-14T19:41:42.296Z,19.10
2023-02-14T19:46:42.795Z,19.63
2023-02-14T19:51:42.265Z,18.15
2023-02-14T19:57:06.711Z,18.42
2023-02-14T20:02:05.533Z,18.95
2023-02-14T20:07:05.485Z,19.75
2023-02-14T20:12:04.866Z,18.85
2023-02-14T20:17:05.889Z,18.42
2023-02-14T20:22:05.336Z,19.00
2023-02-14T20:27:04.168Z,18.70
2023-02-14T20:32:04.938Z,18.15
2023-02-14T20:37:03.866Z,19.67
2023-02-14T20:42:03.271Z,19.30
2023-02-14T20:47:02.024Z,19.35
2023-02-14T20:52:00.958Z,18.60
2023-02-14T20:57:00.107Z,20.52
2023-02-14T21:01:59.561Z,18.98
2023-02-14T21:07:00.285Z,16.85
2023-02-14T21:11:59.397Z,18.38
2023-02-14T21:16:58.318Z,19.35
2023-02-14T21:21:57.258Z,19.20
2023-02-14T21:26:56.618Z,19.17
2023-02-14T21:31:55.548Z,18.70
2023-02-14T21:36:56.284Z,17.83
2023-02-14T21:41:56.327Z,20.15
2023-02-14T21:46:55.117Z,18.92
2023-02-14T21:51:54.178Z,19.20
2023-02-14T21:56:52.841Z,18.88
2023-02-14T22:01:51.643Z,19.63
2023-02-14T22:06:51.590Z,18.25
2023-02-14T22:11:50.353Z,18.80
2023-02-14T22:16:49.169Z,17.88
2023-02-14T22:21:47.857Z,17.92
2023-02-14T22:26:46.601Z,20.27
2023-02-14T22:31:45.659Z,18.17
2023-02-14T22:36:44.549Z,18.90
2023-02-14T22:41:43.904Z,17.58
2023-02-14T22:46:42.675Z,17.60
2023-02-14T22:51:42.957Z,17.65
2023-02-14T22:56:47.426Z,18.25
2023-02-14T23:01:46.851Z,17.70
2023-02-14T23:06:45.774Z,17.42
2023-02-14T23:11:46.119Z,18.13
2023-02-14T23:17:04.065Z,18.58
2023-02-14T23:22:13.048Z,17.15
2023-02-14T23:27:11.820Z,16.10
2023-02-14T23:32:10.997Z,16.80
2023-02-14T23:37:11.382Z,19.08
2023-02-14T23:42:13.877Z,16.38
2023-02-14T23:47:14.065Z,17.10
2023-02-14T23:52:13.884Z,16.00
2023-02-14T23:57:12.955Z,15.57
